sensor_id;sensor_type;location;lat;lon;timestamp;temperature;humidity
1702;DHT22;848;48.354;10.064;2023-07-20T00:00:09;21.10;99.90
1702;DHT22;848;48.354;10.064;2023-07-20T00:02:38;21.10;99.90
1702;DHT22;848;48.354;10.064;2023-07-20T00:05:05;21.00;99.90
1702;DHT22;848;48.354;10.064;2023-07-20T00:07:34;21.00;99.90
1702;DHT22;848;48.354;10.064;2023-07-20T00:10:00;21.00;99.90
1702;DHT22;848;48.354;10.064;2023-07-20T00:12:27;20.90;99.90
1702;DHT22;848;48.354;10.064;2023-07-20T00:14:54;20.90;99.90
1702;DHT22;848;48.354;10.064;2023-07-20T00:17:21;20.90;99.90
1702;DHT22;848;48.354;10.064;2023-07-20T00:19:48;20.80;99.90
1702;DHT22;848;48.354;10.064;2023-07-20T00:22:15;20.80;99.90
1702;DHT22;848;48.354;10.064;2023-07-20T00:24:43;20.80;99.90
1702;DHT22;848;48.354;10.064;2023-07-20T00:27:10;20.70;99.90
1702;DHT22;848;48.354;10.064;2023-07-20T00:29:37;20.70;99.90
1702;DHT22;848;48.354;10.064;2023-07-20T00:32:04;20.70;99.90
1702;DHT22;848;48.354;10.064;2023-07-20T00:34:32;20.70;99.90
1702;DHT22;848;48.354;10.064;2023-07-20T00:36:58;20.70;99.90
1702;DHT22;848;48.354;10.064;2023-07-20T00:39:25;20.60;99.90
1702;DHT22;848;48.354;10.064;2023-07-20T00:41:54;20.70;99.90
1702;DHT22;848;48.354;10.064;2023-07-20T00:44:21;20.60;99.90
1702;DHT22;848;48.354;10.064;2023-07-20T00:46:48;20.60;99.90
1702;DHT22;848;48.354;10.064;2023-07-20T00:49:15;20.50;99.90
1702;DHT22;848;48.354;10.064;2023-07-20T00:51:42;20.50;99.90
1702;DHT22;848;48.354;10.064;2023-07-20T00:54:09;20.50;99.90
1702;DHT22;848;48.354;10.064;2023-07-20T00:56:36;20.40;99.90
1702;DHT22;848;48.354;10.064;2023-07-20T00:59:05;20.40;99.90
1702;DHT22;848;48.354;10.064;2023-07-20T01:01:33;20.30;99.90
1702;DHT22;848;48.354;10.064;2023-07-20T01:04:00;20.30;99.90
1702;DHT22;848;48.354;10.064;2023-07-20T01:06:34;20.40;99.90
1702;DHT22;848;48.354;10.064;2023-07-20T01:09:08;20.40;99.90
1702;DHT22;848;48.354;10.064;2023-07-20T01:11:42;20.40;99.90
1702;DHT22;848;48.354;10.064;2023-07-20T01:14:12;20.40;99.90
1702;DHT22;848;48.354;10.064;2023-07-20T01:16:39;20.30;99.90
1702;DHT22;848;48.354;10.064;2023-07-20T01:19:06;20.30;99.90
1702;DHT22;848;48.354;10.064;2023-07-20T01:21:40;20.30;99.90
1702;DHT22;848;48.354;10.064;2023-07-20T01:24:39;20.20;99.90
1702;DHT22;848;48.354;10.064;2023-07-20T01:27:36;20.20;99.90
1702;DHT22;848;48.354;10.064;2023-07-20T01:30:27;20.20;99.90
1702;DHT22;848;48.354;10.064;2023-07-20T01:33:00;20.10;99.90
1702;DHT22;848;48.354;10.064;2023-07-20T01:35:29;20.40;99.90
1702;DHT22;848;48.354;10.064;2023-07-20T01:37:57;20.10;99.90
1702;DHT22;848;48.354;10.064;2023-07-20T01:40:25;20.10;99.90
1702;DHT22;848;48.354;10.064;2023-07-20T01:42:52;20.10;99.90
1702;DHT22;848;48.354;10.064;2023-07-20T01:45:20;20.00;99.90
1702;DHT22;848;48.354;10.064;2023-07-20T01:47:47;20.00;99.90
1702;DHT22;848;48.354;10.064;2023-07-20T01:50:15;20.00;99.90
1702;DHT22;848;48.354;10.064;2023-07-20T01:52:42;19.90;99.90
1702;DHT22;848;48.354;10.064;2023-07-20T01:55:09;19.90;99.90
1702;DHT22;848;48.354;10.064;2023-07-20T01:57:36;19.80;99.90
1702;DHT22;848;48.354;10.064;2023-07-20T02:00:04;19.80;99.90
1702;DHT22;848;48.354;10.064;2023-07-20T02:02:31;19.70;99.90
1702;DHT22;848;48.354;10.064;2023-07-20T02:04:58;19.70;99.90
1702;DHT22;848;48.354;10.064;2023-07-20T02:07:28;19.60;99.90
1702;DHT22;848;48.354;10.064;2023-07-20T02:09:57;19.70;99.90
1702;DHT22;848;48.354;10.064;2023-07-20T02:12:24;19.70;99.90
1702;DHT22;848;48.354;10.064;2023-07-20T02:14:51;19.60;99.90
1702;DHT22;848;48.354;10.064;2023-07-20T02:17:18;19.60;99.90
1702;DHT22;848;48.354;10.064;2023-07-20T02:19:45;19.70;99.90
1702;DHT22;848;48.354;10.064;2023-07-20T02:22:15;19.70;99.90
1702;DHT22;848;48.354;10.064;2023-07-20T02:24:43;19.60;99.90
1702;DHT22;848;48.354;10.064;2023-07-20T02:27:10;19.60;99.90
1702;DHT22;848;48.354;10.064;2023-07-20T02:29:37;19.60;99.90
1702;DHT22;848;48.354;10.064;2023-07-20T02:32:05;19.50;99.90
1702;DHT22;848;48.354;10.064;2023-07-20T02:34:32;19.50;99.90
1702;DHT22;848;48.354;10.064;2023-07-20T02:36:59;19.50;99.90
1702;DHT22;848;48.354;10.064;2023-07-20T02:39:27;19.50;99.90
1702;DHT22;848;48.354;10.064;2023-07-20T02:41:55;19.40;99.90
1702;DHT22;848;48.354;10.064;2023-07-20T02:44:22;19.40;99.90
1702;DHT22;848;48.354;10.064;2023-07-20T02:46:49;19.40;99.90
1702;DHT22;848;48.354;10.064;2023-07-20T02:49:16;19.40;99.90
1702;DHT22;848;48.354;10.064;2023-07-20T02:51:43;19.30;99.90
1702;DHT22;848;48.354;10.064;2023-07-20T02:54:10;19.30;99.90
1702;DHT22;848;48.354;10.064;2023-07-20T02:56:37;19.20;99.90
1702;DHT22;848;48.354;10.064;2023-07-20T02:59:05;19.20;99.90
1702;DHT22;848;48.354;10.064;2023-07-20T03:01:32;19.20;99.90
1702;DHT22;848;48.354;10.064;2023-07-20T03:03:59;19.20;99.90
1702;DHT22;848;48.354;10.064;2023-07-20T03:06:26;19.10;99.90
1702;DHT22;848;48.354;10.064;2023-07-20T03:08:52;19.10;99.90
1702;DHT22;848;48.354;10.064;2023-07-20T03:11:20;19.10;99.90
1702;DHT22;848;48.354;10.064;2023-07-20T03:13:47;19.10;99.90
1702;DHT22;848;48.354;10.064;2023-07-20T03:16:19;19.10;99.90
1702;DHT22;848;48.354;10.064;2023-07-20T03:18:46;19.10;99.90
1702;DHT22;848;48.354;10.064;2023-07-20T03:21:13;19.00;99.90
1702;DHT22;848;48.354;10.064;2023-07-20T03:23:41;19.00;99.90
1702;DHT22;848;48.354;10.064;2023-07-20T03:26:08;19.00;99.90
1702;DHT22;848;48.354;10.064;2023-07-20T03:28:35;18.90;99.90
1702;DHT22;848;48.354;10.064;2023-07-20T03:31:02;18.90;99.90
1702;DHT22;848;48.354;10.064;2023-07-20T03:33:31;18.90;99.90
1702;DHT22;848;48.354;10.064;2023-07-20T03:35:58;18.90;99.90
1702;DHT22;848;48.354;10.064;2023-07-20T03:38:25;18.90;99.90
1702;DHT22;848;48.354;10.064;2023-07-20T03:40:54;18.90;99.90
1702;DHT22;848;48.354;10.064;2023-07-20T03:43:22;18.80;99.90
1702;DHT22;848;48.354;10.064;2023-07-20T03:45:49;18.80;99.90
1702;DHT22;848;48.354;10.064;2023-07-20T03:48:17;18.70;99.90
1702;DHT22;848;48.354;10.064;2023-07-20T03:50:46;18.70;99.90
1702;DHT22;848;48.354;10.064;2023-07-20T03:53:14;18.60;99.90
1702;DHT22;848;48.354;10.064;2023-07-20T03:55:41;18.60;99.90
1702;DHT22;848;48.354;10.064;2023-07-20T03:58:08;18.50;99.90
1702;DHT22;848;48.354;10.064;2023-07-20T04:00:35;18.50;99.90
1702;DHT22;848;48.354;10.064;2023-07-20T04:03:02;18.50;99.90
1702;DHT22;848;48.354;10.064;2023-07-20T04:05:29;18.50;99.90
1702;DHT22;848;48.354;10.064;2023-07-20T04:07:57;18.50;99.90
1702;DHT22;848;48.354;10.064;2023-07-20T04:10:24;18.40;99.90
1702;DHT22;848;48.354;10.064;2023-07-20T04:12:51;18.40;99.90
1702;DHT22;848;48.354;10.064;2023-07-20T04:15:17;18.30;99.90
1702;DHT22;848;48.354;10.064;2023-07-20T04:17:45;18.20;99.90
1702;DHT22;848;48.354;10.064;2023-07-20T04:20:12;18.10;99.90
1702;DHT22;848;48.354;10.064;2023-07-20T04:22:39;18.10;99.90
1702;DHT22;848;48.354;10.064;2023-07-20T04:25:08;18.00;99.90
1702;DHT22;848;48.354;10.064;2023-07-20T04:27:35;17.90;99.90
1702;DHT22;848;48.354;10.064;2023-07-20T04:30:03;17.80;99.90
1702;DHT22;848;48.354;10.064;2023-07-20T04:32:30;17.80;99.90
1702;DHT22;848;48.354;10.064;2023-07-20T04:34:59;17.80;99.90
1702;DHT22;848;48.354;10.064;2023-07-20T04:37:26;17.80;99.90
1702;DHT22;848;48.354;10.064;2023-07-20T04:39:53;17.70;99.90
1702;DHT22;848;48.354;10.064;2023-07-20T04:42:21;17.80;99.90
1702;DHT22;848;48.354;10.064;2023-07-20T04:44:48;17.80;99.90
1702;DHT22;848;48.354;10.064;2023-07-20T04:47:15;17.90;99.90
1702;DHT22;848;48.354;10.064;2023-07-20T04:49:42;18.00;99.90
1702;DHT22;848;48.354;10.064;2023-07-20T04:52:08;18.10;99.90
1702;DHT22;848;48.354;10.064;2023-07-20T04:54:35;18.20;99.90
1702;DHT22;848;48.354;10.064;2023-07-20T04:57:05;18.30;99.90
1702;DHT22;848;48.354;10.064;2023-07-20T04:59:37;18.40;99.90
1702;DHT22;848;48.354;10.064;2023-07-20T05:02:04;18.50;99.90
1702;DHT22;848;48.354;10.064;2023-07-20T05:04:31;18.50;99.90
1702;DHT22;848;48.354;10.064;2023-07-20T05:06:58;18.60;99.90
1702;DHT22;848;48.354;10.064;2023-07-20T05:09:25;18.60;99.90
1702;DHT22;848;48.354;10.064;2023-07-20T05:11:52;18.60;99.90
1702;DHT22;848;48.354;10.064;2023-07-20T05:14:19;18.60;99.90
1702;DHT22;848;48.354;10.064;2023-07-20T05:16:47;18.50;99.90
1702;DHT22;848;48.354;10.064;2023-07-20T05:19:14;18.60;99.90
1702;DHT22;848;48.354;10.064;2023-07-20T05:21:41;18.60;99.90
1702;DHT22;848;48.354;10.064;2023-07-20T05:24:08;18.70;99.90
1702;DHT22;848;48.354;10.064;2023-07-20T05:26:35;18.70;99.90
1702;DHT22;848;48.354;10.064;2023-07-20T05:29:02;18.70;99.90
1702;DHT22;848;48.354;10.064;2023-07-20T05:31:28;18.80;99.90
1702;DHT22;848;48.354;10.064;2023-07-20T05:33:58;18.90;99.90
1702;DHT22;848;48.354;10.064;2023-07-20T05:36:25;18.90;99.90
1702;DHT22;848;48.354;10.064;2023-07-20T05:38:52;19.00;99.90
1702;DHT22;848;48.354;10.064;2023-07-20T05:41:19;19.00;99.90
1702;DHT22;848;48.354;10.064;2023-07-20T05:43:48;19.00;99.90
1702;DHT22;848;48.354;10.064;2023-07-20T05:46:15;19.00;99.90
1702;DHT22;848;48.354;10.064;2023-07-20T05:48:42;19.00;99.90
1702;DHT22;848;48.354;10.064;2023-07-20T05:51:10;19.10;99.90
1702;DHT22;848;48.354;10.064;2023-07-20T05:53:40;19.10;99.90
1702;DHT22;848;48.354;10.064;2023-07-20T05:56:06;19.20;99.90
1702;DHT22;848;48.354;10.064;2023-07-20T05:58:35;19.30;99.90
1702;DHT22;848;48.354;10.064;2023-07-20T06:01:03;19.40;99.90
1702;DHT22;848;48.354;10.064;2023-07-20T06:03:31;19.60;99.90
1702;DHT22;848;48.354;10.064;2023-07-20T06:05:59;19.50;99.90
1702;DHT22;848;48.354;10.064;2023-07-20T06:08:27;19.50;99.90
1702;DHT22;848;48.354;10.064;2023-07-20T06:10:54;19.60;99.90
1702;DHT22;848;48.354;10.064;2023-07-20T06:13:21;19.60;99.90
1702;DHT22;848;48.354;10.064;2023-07-20T06:15:48;19.60;99.90
1702;DHT22;848;48.354;10.064;2023-07-20T06:18:15;19.70;99.90
1702;DHT22;848;48.354;10.064;2023-07-20T06:20:42;19.50;99.90
1702;DHT22;848;48.354;10.064;2023-07-20T06:23:09;19.60;99.90
1702;DHT22;848;48.354;10.064;2023-07-20T06:25:37;19.70;99.90
1702;DHT22;848;48.354;10.064;2023-07-20T06:28:04;19.70;99.90
1702;DHT22;848;48.354;10.064;2023-07-20T06:30:33;19.80;99.90
1702;DHT22;848;48.354;10.064;2023-07-20T06:33:00;19.90;99.90
1702;DHT22;848;48.354;10.064;2023-07-20T06:35:27;19.80;99.90
1702;DHT22;848;48.354;10.064;2023-07-20T06:37:54;19.80;99.90
1702;DHT22;848;48.354;10.064;2023-07-20T06:40:21;19.90;99.90
1702;DHT22;848;48.354;10.064;2023-07-20T06:42:49;19.90;99.90
1702;DHT22;848;48.354;10.064;2023-07-20T06:45:16;19.80;99.90
1702;DHT22;848;48.354;10.064;2023-07-20T06:47:43;19.90;99.90
1702;DHT22;848;48.354;10.064;2023-07-20T06:50:12;20.00;99.90
1702;DHT22;848;48.354;10.064;2023-07-20T06:52:39;20.10;99.90
1702;DHT22;848;48.354;10.064;2023-07-20T06:55:08;20.20;99.90
1702;DHT22;848;48.354;10.064;2023-07-20T06:57:35;20.10;99.90
1702;DHT22;848;48.354;10.064;2023-07-20T07:00:04;20.10;99.90
1702;DHT22;848;48.354;10.064;2023-07-20T07:02:32;20.20;99.90
1702;DHT22;848;48.354;10.064;2023-07-20T07:05:00;20.20;99.90
1702;DHT22;848;48.354;10.064;2023-07-20T07:07:27;20.10;99.90
1702;DHT22;848;48.354;10.064;2023-07-20T07:09:53;20.10;99.90
1702;DHT22;848;48.354;10.064;2023-07-20T07:12:20;20.30;99.90
1702;DHT22;848;48.354;10.064;2023-07-20T07:14:47;20.30;99.90
1702;DHT22;848;48.354;10.064;2023-07-20T07:17:16;20.30;99.90
1702;DHT22;848;48.354;10.064;2023-07-20T07:19:42;20.10;99.90
1702;DHT22;848;48.354;10.064;2023-07-20T07:22:10;20.20;99.90
1702;DHT22;848;48.354;10.064;2023-07-20T07:24:37;20.20;99.90
1702;DHT22;848;48.354;10.064;2023-07-20T07:27:06;20.20;99.90
1702;DHT22;848;48.354;10.064;2023-07-20T07:29:33;20.30;99.90
1702;DHT22;848;48.354;10.064;2023-07-20T07:31:59;20.30;99.90
1702;DHT22;848;48.354;10.064;2023-07-20T07:34:28;20.40;99.90
1702;DHT22;848;48.354;10.064;2023-07-20T07:36:55;20.60;99.90
1702;DHT22;848;48.354;10.064;2023-07-20T07:39:22;20.90;99.90
1702;DHT22;848;48.354;10.064;2023-07-20T07:41:49;22.50;99.90
1702;DHT22;848;48.354;10.064;2023-07-20T07:44:17;24.00;99.90
1702;DHT22;848;48.354;10.064;2023-07-20T07:46:44;25.20;99.90
1702;DHT22;848;48.354;10.064;2023-07-20T07:49:11;25.10;99.90
1702;DHT22;848;48.354;10.064;2023-07-20T07:51:39;24.20;99.90
1702;DHT22;848;48.354;10.064;2023-07-20T07:54:06;23.90;99.90
1702;DHT22;848;48.354;10.064;2023-07-20T07:56:33;23.50;99.90
1702;DHT22;848;48.354;10.064;2023-07-20T07:58:59;23.10;99.90
1702;DHT22;848;48.354;10.064;2023-07-20T08:01:26;22.80;99.90
1702;DHT22;848;48.354;10.064;2023-07-20T08:03:53;23.30;99.90
1702;DHT22;848;48.354;10.064;2023-07-20T08:06:20;23.50;99.90
1702;DHT22;848;48.354;10.064;2023-07-20T08:08:48;23.00;99.90
1702;DHT22;848;48.354;10.064;2023-07-20T08:11:15;23.10;99.90
1702;DHT22;848;48.354;10.064;2023-07-20T08:13:43;23.30;99.90
1702;DHT22;848;48.354;10.064;2023-07-20T08:16:10;23.30;99.90
1702;DHT22;848;48.354;10.064;2023-07-20T08:18:37;23.20;99.90
1702;DHT22;848;48.354;10.064;2023-07-20T08:21:04;24.00;99.90
1702;DHT22;848;48.354;10.064;2023-07-20T08:23:31;23.90;99.90
1702;DHT22;848;48.354;10.064;2023-07-20T08:25:59;24.00;99.90
1702;DHT22;848;48.354;10.064;2023-07-20T08:28:26;24.90;99.90
1702;DHT22;848;48.354;10.064;2023-07-20T08:30:54;25.20;99.90
1702;DHT22;848;48.354;10.064;2023-07-20T08:33:21;25.90;99.90
1702;DHT22;848;48.354;10.064;2023-07-20T08:35:49;25.40;99.90
1702;DHT22;848;48.354;10.064;2023-07-20T08:38:16;25.00;99.90
1702;DHT22;848;48.354;10.064;2023-07-20T08:40:44;25.10;99.90
1702;DHT22;848;48.354;10.064;2023-07-20T08:43:13;25.50;99.90
1702;DHT22;848;48.354;10.064;2023-07-20T08:45:42;25.20;99.90
1702;DHT22;848;48.354;10.064;2023-07-20T08:48:12;24.70;99.90
1702;DHT22;848;48.354;10.064;2023-07-20T08:50:39;25.10;99.90
1702;DHT22;848;48.354;10.064;2023-07-20T08:53:07;25.00;99.90
1702;DHT22;848;48.354;10.064;2023-07-20T08:55:35;25.40;99.90
1702;DHT22;848;48.354;10.064;2023-07-20T08:58:03;25.50;99.90
1702;DHT22;848;48.354;10.064;2023-07-20T09:00:35;25.90;99.90
1702;DHT22;848;48.354;10.064;2023-07-20T09:03:03;26.30;99.90
1702;DHT22;848;48.354;10.064;2023-07-20T09:05:30;27.10;99.90
1702;DHT22;848;48.354;10.064;2023-07-20T09:07:57;26.00;99.90
1702;DHT22;848;48.354;10.064;2023-07-20T09:10:24;25.60;99.90
1702;DHT22;848;48.354;10.064;2023-07-20T09:12:54;25.60;99.90
1702;DHT22;848;48.354;10.064;2023-07-20T09:15:25;25.90;99.90
1702;DHT22;848;48.354;10.064;2023-07-20T09:17:55;26.30;99.90
1702;DHT22;848;48.354;10.064;2023-07-20T09:20:27;26.60;99.90
1702;DHT22;848;48.354;10.064;2023-07-20T09:22:57;26.30;99.90
1702;DHT22;848;48.354;10.064;2023-07-20T09:25:24;25.70;99.90
1702;DHT22;848;48.354;10.064;2023-07-20T09:27:54;26.00;99.90
1702;DHT22;848;48.354;10.064;2023-07-20T09:30:25;26.60;99.90
1702;DHT22;848;48.354;10.064;2023-07-20T09:32:54;26.50;99.90
1702;DHT22;848;48.354;10.064;2023-07-20T09:35:22;26.40;99.90
1702;DHT22;848;48.354;10.064;2023-07-20T09:37:51;26.60;99.90
1702;DHT22;848;48.354;10.064;2023-07-20T09:40:19;26.20;99.90
1702;DHT22;848;48.354;10.064;2023-07-20T09:42:47;25.40;99.90
1702;DHT22;848;48.354;10.064;2023-07-20T09:45:14;25.70;99.90
1702;DHT22;848;48.354;10.064;2023-07-20T09:47:41;25.80;99.90
1702;DHT22;848;48.354;10.064;2023-07-20T09:50:11;25.70;99.90
1702;DHT22;848;48.354;10.064;2023-07-20T09:52:39;25.50;99.90
1702;DHT22;848;48.354;10.064;2023-07-20T09:55:07;25.20;99.90
1702;DHT22;848;48.354;10.064;2023-07-20T09:57:35;25.50;99.90
1702;DHT22;848;48.354;10.064;2023-07-20T10:00:03;26.10;99.90
1702;DHT22;848;48.354;10.064;2023-07-20T10:02:41;25.80;99.90
1702;DHT22;848;48.354;10.064;2023-07-20T10:05:12;25.40;99.90
1702;DHT22;848;48.354;10.064;2023-07-20T10:07:43;25.30;99.90
1702;DHT22;848;48.354;10.064;2023-07-20T10:10:10;25.20;99.90
1702;DHT22;848;48.354;10.064;2023-07-20T10:12:39;25.20;99.90
1702;DHT22;848;48.354;10.064;2023-07-20T10:15:11;24.80;99.90
1702;DHT22;848;48.354;10.064;2023-07-20T10:17:48;24.70;99.90
1702;DHT22;848;48.354;10.064;2023-07-20T10:20:19;24.60;99.90
1702;DHT22;848;48.354;10.064;2023-07-20T10:22:49;24.60;99.90
1702;DHT22;848;48.354;10.064;2023-07-20T10:25:20;25.10;99.90
1702;DHT22;848;48.354;10.064;2023-07-20T10:27:49;25.10;99.90
1702;DHT22;848;48.354;10.064;2023-07-20T10:30:21;24.70;99.90
1702;DHT22;848;48.354;10.064;2023-07-20T10:32:49;24.70;99.90
1702;DHT22;848;48.354;10.064;2023-07-20T10:35:18;24.70;99.90
1702;DHT22;848;48.354;10.064;2023-07-20T10:37:52;24.60;99.90
1702;DHT22;848;48.354;10.064;2023-07-20T10:40:27;24.60;99.90
1702;DHT22;848;48.354;10.064;2023-07-20T10:43:00;24.70;99.90
1702;DHT22;848;48.354;10.064;2023-07-20T10:45:45;24.90;99.90
1702;DHT22;848;48.354;10.064;2023-07-20T10:48:16;24.70;99.90
1702;DHT22;848;48.354;10.064;2023-07-20T10:50:45;25.00;99.90
1702;DHT22;848;48.354;10.064;2023-07-20T10:53:16;24.90;99.90
1702;DHT22;848;48.354;10.064;2023-07-20T10:55:43;24.90;99.90
1702;DHT22;848;48.354;10.064;2023-07-20T10:58:13;24.90;99.90
1702;DHT22;848;48.354;10.064;2023-07-20T11:01:01;25.00;99.90
1702;DHT22;848;48.354;10.064;2023-07-20T11:03:29;25.10;99.90
1702;DHT22;848;48.354;10.064;2023-07-20T11:05:58;25.30;99.90
1702;DHT22;848;48.354;10.064;2023-07-20T11:08:39;25.40;99.90
1702;DHT22;848;48.354;10.064;2023-07-20T11:11:22;25.30;99.90
1702;DHT22;848;48.354;10.064;2023-07-20T11:13:59;25.20;99.90
1702;DHT22;848;48.354;10.064;2023-07-20T11:16:37;24.80;99.90
1702;DHT22;848;48.354;10.064;2023-07-20T11:19:05;24.30;99.90
1702;DHT22;848;48.354;10.064;2023-07-20T11:21:37;24.20;99.90
1702;DHT22;848;48.354;10.064;2023-07-20T11:24:06;24.00;99.90
1702;DHT22;848;48.354;10.064;2023-07-20T11:26:42;24.00;99.90
1702;DHT22;848;48.354;10.064;2023-07-20T11:29:08;24.00;99.90
1702;DHT22;848;48.354;10.064;2023-07-20T11:31:36;24.10;99.90
1702;DHT22;848;48.354;10.064;2023-07-20T11:34:03;24.30;99.90
1702;DHT22;848;48.354;10.064;2023-07-20T11:36:30;24.60;99.90
1702;DHT22;848;48.354;10.064;2023-07-20T11:38:59;24.70;99.90
1702;DHT22;848;48.354;10.064;2023-07-20T11:41:26;25.00;99.90
1702;DHT22;848;48.354;10.064;2023-07-20T11:43:54;25.20;99.90
1702;DHT22;848;48.354;10.064;2023-07-20T11:46:21;25.10;99.60
1702;DHT22;848;48.354;10.064;2023-07-20T11:48:48;24.90;99.80
1702;DHT22;848;48.354;10.064;2023-07-20T11:51:16;24.50;99.90
1702;DHT22;848;48.354;10.064;2023-07-20T11:53:44;24.40;99.90
1702;DHT22;848;48.354;10.064;2023-07-20T11:56:13;24.40;99.90
1702;DHT22;848;48.354;10.064;2023-07-20T11:58:43;24.30;99.90
1702;DHT22;848;48.354;10.064;2023-07-20T12:01:12;24.40;99.90
1702;DHT22;848;48.354;10.064;2023-07-20T12:03:39;24.40;99.90
1702;DHT22;848;48.354;10.064;2023-07-20T12:06:07;24.50;99.90
1702;DHT22;848;48.354;10.064;2023-07-20T12:08:34;24.40;99.90
1702;DHT22;848;48.354;10.064;2023-07-20T12:11:16;24.30;99.90
1702;DHT22;848;48.354;10.064;2023-07-20T12:13:59;24.30;99.90
1702;DHT22;848;48.354;10.064;2023-07-20T12:16:28;24.40;99.90
1702;DHT22;848;48.354;10.064;2023-07-20T12:18:59;24.70;99.90
1702;DHT22;848;48.354;10.064;2023-07-20T12:21:29;24.90;99.90
1702;DHT22;848;48.354;10.064;2023-07-20T12:23:57;25.00;99.90
1702;DHT22;848;48.354;10.064;2023-07-20T12:26:26;25.10;99.90
1702;DHT22;848;48.354;10.064;2023-07-20T12:28:53;25.20;99.90
1702;DHT22;848;48.354;10.064;2023-07-20T12:31:19;25.00;99.00
1702;DHT22;848;48.354;10.064;2023-07-20T12:33:48;25.10;99.50
1702;DHT22;848;48.354;10.064;2023-07-20T12:36:14;25.10;99.90
1702;DHT22;848;48.354;10.064;2023-07-20T12:38:41;25.20;99.90
1702;DHT22;848;48.354;10.064;2023-07-20T12:41:10;25.10;99.90
1702;DHT22;848;48.354;10.064;2023-07-20T12:43:40;25.10;99.90
1702;DHT22;848;48.354;10.064;2023-07-20T12:46:08;25.20;99.90
1702;DHT22;848;48.354;10.064;2023-07-20T12:48:36;25.40;99.90
1702;DHT22;848;48.354;10.064;2023-07-20T12:51:03;25.50;99.90
1702;DHT22;848;48.354;10.064;2023-07-20T12:53:31;25.50;99.10
1702;DHT22;848;48.354;10.064;2023-07-20T12:55:58;25.70;99.90
1702;DHT22;848;48.354;10.064;2023-07-20T12:58:25;25.70;98.90
1702;DHT22;848;48.354;10.064;2023-07-20T13:00:53;25.80;99.90
1702;DHT22;848;48.354;10.064;2023-07-20T13:03:21;25.70;99.70
1702;DHT22;848;48.354;10.064;2023-07-20T13:05:48;25.70;99.90
1702;DHT22;848;48.354;10.064;2023-07-20T13:08:16;25.70;99.60
1702;DHT22;848;48.354;10.064;2023-07-20T13:10:43;25.60;98.40
1702;DHT22;848;48.354;10.064;2023-07-20T13:13:10;25.40;98.50
1702;DHT22;848;48.354;10.064;2023-07-20T13:15:41;25.30;99.00
1702;DHT22;848;48.354;10.064;2023-07-20T13:18:10;25.50;99.20
1702;DHT22;848;48.354;10.064;2023-07-20T13:20:37;25.30;97.80
1702;DHT22;848;48.354;10.064;2023-07-20T13:23:04;25.10;99.60
1702;DHT22;848;48.354;10.064;2023-07-20T13:25:31;24.90;98.90
1702;DHT22;848;48.354;10.064;2023-07-20T13:27:58;24.90;98.90
1702;DHT22;848;48.354;10.064;2023-07-20T13:30:25;24.90;98.40
1702;DHT22;848;48.354;10.064;2023-07-20T13:32:52;24.90;98.10
1702;DHT22;848;48.354;10.064;2023-07-20T13:35:20;24.70;98.40
1702;DHT22;848;48.354;10.064;2023-07-20T13:37:47;24.90;99.10
1702;DHT22;848;48.354;10.064;2023-07-20T13:40:15;25.10;99.90
1702;DHT22;848;48.354;10.064;2023-07-20T13:42:44;25.30;99.70
1702;DHT22;848;48.354;10.064;2023-07-20T13:45:11;25.20;97.50
1702;DHT22;848;48.354;10.064;2023-07-20T13:47:37;25.20;97.30
1702;DHT22;848;48.354;10.064;2023-07-20T13:50:05;25.00;97.00
1702;DHT22;848;48.354;10.064;2023-07-20T13:52:33;25.00;97.90
1702;DHT22;848;48.354;10.064;2023-07-20T13:55:01;25.00;96.90
1702;DHT22;848;48.354;10.064;2023-07-20T13:57:28;24.90;97.30
1702;DHT22;848;48.354;10.064;2023-07-20T13:59:54;25.10;97.30
1702;DHT22;848;48.354;10.064;2023-07-20T14:02:22;25.20;98.10
1702;DHT22;848;48.354;10.064;2023-07-20T14:04:48;25.20;97.70
1702;DHT22;848;48.354;10.064;2023-07-20T14:07:15;25.30;98.10
1702;DHT22;848;48.354;10.064;2023-07-20T14:09:44;25.30;97.10
1702;DHT22;848;48.354;10.064;2023-07-20T14:12:11;25.30;96.70
1702;DHT22;848;48.354;10.064;2023-07-20T14:14:39;25.50;96.70
1702;DHT22;848;48.354;10.064;2023-07-20T14:17:07;25.50;97.60
1702;DHT22;848;48.354;10.064;2023-07-20T14:19:36;25.50;97.00
1702;DHT22;848;48.354;10.064;2023-07-20T14:22:03;25.40;96.90
1702;DHT22;848;48.354;10.064;2023-07-20T14:24:30;25.30;96.60
1702;DHT22;848;48.354;10.064;2023-07-20T14:26:58;25.30;96.80
1702;DHT22;848;48.354;10.064;2023-07-20T14:29:26;25.40;97.00
1702;DHT22;848;48.354;10.064;2023-07-20T14:31:53;25.50;97.40
1702;DHT22;848;48.354;10.064;2023-07-20T14:34:20;25.50;98.50
1702;DHT22;848;48.354;10.064;2023-07-20T14:36:47;25.60;98.40
1702;DHT22;848;48.354;10.064;2023-07-20T14:39:15;25.70;96.90
1702;DHT22;848;48.354;10.064;2023-07-20T14:41:42;25.60;97.30
1702;DHT22;848;48.354;10.064;2023-07-20T14:44:10;25.60;97.50
1702;DHT22;848;48.354;10.064;2023-07-20T14:46:37;25.60;98.40
1702;DHT22;848;48.354;10.064;2023-07-20T14:49:04;25.80;98.30
1702;DHT22;848;48.354;10.064;2023-07-20T14:51:31;25.90;98.10
1702;DHT22;848;48.354;10.064;2023-07-20T14:53:58;25.90;97.30
1702;DHT22;848;48.354;10.064;2023-07-20T14:56:26;25.90;97.70
1702;DHT22;848;48.354;10.064;2023-07-20T14:58:53;25.90;97.30
1702;DHT22;848;48.354;10.064;2023-07-20T15:01:22;25.70;97.10
1702;DHT22;848;48.354;10.064;2023-07-20T15:03:49;25.70;99.20
1702;DHT22;848;48.354;10.064;2023-07-20T15:06:18;25.60;97.70
1702;DHT22;848;48.354;10.064;2023-07-20T15:08:45;25.50;97.40
1702;DHT22;848;48.354;10.064;2023-07-20T15:11:12;25.50;99.60
1702;DHT22;848;48.354;10.064;2023-07-20T15:13:39;25.60;98.80
1702;DHT22;848;48.354;10.064;2023-07-20T15:16:08;25.70;97.50
1702;DHT22;848;48.354;10.064;2023-07-20T15:18:37;25.70;97.70
1702;DHT22;848;48.354;10.064;2023-07-20T15:21:04;25.80;96.30
1702;DHT22;848;48.354;10.064;2023-07-20T15:23:31;25.70;96.60
1702;DHT22;848;48.354;10.064;2023-07-20T15:25:58;25.40;96.40
1702;DHT22;848;48.354;10.064;2023-07-20T15:28:24;25.40;96.70
1702;DHT22;848;48.354;10.064;2023-07-20T15:30:59;25.30;96.30
1702;DHT22;848;48.354;10.064;2023-07-20T15:33:26;25.30;97.60
1702;DHT22;848;48.354;10.064;2023-07-20T15:35:54;25.40;96.20
1702;DHT22;848;48.354;10.064;2023-07-20T15:38:21;25.40;96.30
1702;DHT22;848;48.354;10.064;2023-07-20T15:40:48;25.50;96.00
1702;DHT22;848;48.354;10.064;2023-07-20T15:43:15;25.60;95.70
1702;DHT22;848;48.354;10.064;2023-07-20T15:45:47;25.80;96.10
1702;DHT22;848;48.354;10.064;2023-07-20T15:48:15;25.90;97.10
1702;DHT22;848;48.354;10.064;2023-07-20T15:50:42;25.90;96.10
1702;DHT22;848;48.354;10.064;2023-07-20T15:53:11;25.90;96.50
1702;DHT22;848;48.354;10.064;2023-07-20T15:55:38;25.70;96.00
1702;DHT22;848;48.354;10.064;2023-07-20T15:58:05;25.20;96.20
1702;DHT22;848;48.354;10.064;2023-07-20T16:00:32;24.90;96.50
1702;DHT22;848;48.354;10.064;2023-07-20T16:02:59;24.80;98.10
1702;DHT22;848;48.354;10.064;2023-07-20T16:05:26;24.70;97.90
1702;DHT22;848;48.354;10.064;2023-07-20T16:07:52;24.60;98.70